UAE4PV LIMC-KJFK
Flight info
| Callsign | UAE4PV |
|---|---|
| Flight time | N/A |
| Altitude | 32000 |
| Route | AOSTA DCT ORSUD DCT MOLUS DCT UNKIR DCT DJL DCT OKRIX DCT AMODO DCT COHPA UM729 RESMI UN491 LGL UN502 JSY DCT LIZAD DCT LESLU DCT XETBO DCT LIMRI/M084F340 NATH PORTI/N0482F340 DCT KANNI DCT PLYMM PARCH4 |
| Aircraft | B77W/H-SDE2E3GHIJ1J3J4J5M1P2RWXYZ/LB1D1 |
Departure
| Time | N/A |
|---|---|
| Airport | Milan Malpensa International Airport (LIMC) |
Arrival
| Time | 2026-05-08 17:59 |
|---|---|
| Airport | John F. Kennedy International Airport (KJFK) |
| Time | Latitude | Longitude | Altitude | Speed | Heading |
|---|---|---|---|---|---|
| 2026-05-08 17:35 | 41.30228 | -71.89831 | 33927 ft | 390 kts | 229° |
| 2026-05-08 17:36 | 41.26036 | -71.94488 | 33527 ft | 396 kts | 229° |
| 2026-05-08 17:36 | 41.23919 | -71.96800 | 33305 ft | 391 kts | 229° |
| 2026-05-08 17:36 | 41.21831 | -71.99071 | 33050 ft | 385 kts | 229° |
| 2026-05-08 17:37 | 41.19776 | -72.01311 | 32786 ft | 380 kts | 229° |
| 2026-05-08 17:37 | 41.17746 | -72.03528 | 32613 ft | 374 kts | 229° |
| 2026-05-08 17:37 | 41.15747 | -72.05714 | 32486 ft | 371 kts | 230° |
| 2026-05-08 17:37 | 41.13757 | -72.07889 | 32357 ft | 371 kts | 230° |
| 2026-05-08 17:38 | 41.11763 | -72.10080 | 32235 ft | 369 kts | 232° |
| 2026-05-08 17:38 | 41.10110 | -72.12595 | 32094 ft | 356 kts | 245° |
| 2026-05-08 17:38 | 41.09006 | -72.15473 | 31981 ft | 347 kts | 256° |
| 2026-05-08 17:38 | 41.08244 | -72.18500 | 31870 ft | 346 kts | 257° |
| 2026-05-08 17:39 | 41.07512 | -72.21538 | 31718 ft | 347 kts | 257° |
| 2026-05-08 17:39 | 41.06772 | -72.24625 | 31022 ft | 354 kts | 258° |
| 2026-05-08 17:39 | 41.06022 | -72.27721 | 30540 ft | 352 kts | 258° |
| 2026-05-08 17:39 | 41.05267 | -72.30803 | 30052 ft | 350 kts | 258° |
| 2026-05-08 17:40 | 41.04513 | -72.33858 | 29489 ft | 348 kts | 258° |
| 2026-05-08 17:40 | 41.03764 | -72.36881 | 28974 ft | 344 kts | 258° |
| 2026-05-08 17:40 | 41.03019 | -72.39872 | 28469 ft | 340 kts | 258° |
| 2026-05-08 17:40 | 41.02281 | -72.42828 | 28005 ft | 335 kts | 258° |
| 2026-05-08 17:41 | 41.01554 | -72.45741 | 27517 ft | 332 kts | 257° |
| 2026-05-08 17:41 | 41.00831 | -72.48632 | 27057 ft | 329 kts | 257° |
| 2026-05-08 17:41 | 41.00113 | -72.51497 | 26608 ft | 326 kts | 257° |
| 2026-05-08 17:41 | 40.99403 | -72.54334 | 26152 ft | 324 kts | 257° |
| 2026-05-08 17:42 | 40.98697 | -72.57146 | 25706 ft | 321 kts | 257° |
| 2026-05-08 17:42 | 40.97993 | -72.59949 | 25258 ft | 319 kts | 257° |
| 2026-05-08 17:42 | 40.97294 | -72.62726 | 24826 ft | 317 kts | 257° |
| 2026-05-08 17:42 | 40.96601 | -72.65483 | 24393 ft | 316 kts | 257° |
| 2026-05-08 17:43 | 40.95917 | -72.68200 | 23966 ft | 314 kts | 257° |
| 2026-05-08 17:43 | 40.95227 | -72.70933 | 23546 ft | 313 kts | 257° |
| 2026-05-08 17:43 | 40.94537 | -72.73662 | 23039 ft | 312 kts | 257° |
| 2026-05-08 17:43 | 40.93850 | -72.76372 | 22578 ft | 310 kts | 257° |
| 2026-05-08 17:44 | 40.92963 | -72.78955 | 22127 ft | 312 kts | 244° |
| 2026-05-08 17:44 | 40.91584 | -72.81205 | 21744 ft | 319 kts | 232° |
| 2026-05-08 17:44 | 40.89826 | -72.83050 | 21341 ft | 322 kts | 226° |
| 2026-05-08 17:44 | 40.88011 | -72.84758 | 20967 ft | 320 kts | 225° |
| 2026-05-08 17:45 | 40.86201 | -72.86448 | 20589 ft | 317 kts | 225° |
| 2026-05-08 17:45 | 40.84415 | -72.88124 | 20199 ft | 315 kts | 225° |
| 2026-05-08 17:45 | 40.82642 | -72.89802 | 19823 ft | 312 kts | 225° |
| 2026-05-08 17:45 | 40.80881 | -72.91478 | 19443 ft | 310 kts | 225° |
| 2026-05-08 17:46 | 40.79137 | -72.93142 | 19061 ft | 309 kts | 225° |
| 2026-05-08 17:46 | 40.77401 | -72.94802 | 18688 ft | 307 kts | 225° |
| 2026-05-08 17:46 | 40.75677 | -72.96450 | 18306 ft | 306 kts | 225° |
| 2026-05-08 17:46 | 40.73958 | -72.98093 | 17888 ft | 304 kts | 225° |
| 2026-05-08 17:47 | 40.72253 | -72.99721 | 17476 ft | 302 kts | 225° |
| 2026-05-08 17:47 | 40.70549 | -73.01354 | 16843 ft | 303 kts | 227° |
| 2026-05-08 17:47 | 40.69157 | -73.03382 | 15825 ft | 300 kts | 247° |
| 2026-05-08 17:47 | 40.68585 | -73.05038 | 15360 ft | 300 kts | 256° |
| 2026-05-08 17:48 | 40.68074 | -73.08626 | 14554 ft | 298 kts | 268° |
| 2026-05-08 17:48 | 40.67893 | -73.11355 | 14008 ft | 300 kts | 269° |
| 2026-05-08 17:48 | 40.67709 | -73.14097 | 13436 ft | 299 kts | 266° |
| 2026-05-08 17:48 | 40.67046 | -73.16731 | 12817 ft | 311 kts | 247° |
| 2026-05-08 17:49 | 40.65656 | -73.18983 | 12226 ft | 323 kts | 228° |
| 2026-05-08 17:49 | 40.63754 | -73.20506 | 11628 ft | 317 kts | 212° |
| 2026-05-08 17:49 | 40.61748 | -73.21536 | 11064 ft | 304 kts | 208° |
| 2026-05-08 17:49 | 40.59797 | -73.22433 | 10490 ft | 291 kts | 207° |
| 2026-05-08 17:50 | 40.57913 | -73.23288 | 9918 ft | 281 kts | 207° |
| 2026-05-08 17:50 | 40.56100 | -73.24114 | 9332 ft | 273 kts | 207° |
| 2026-05-08 17:50 | 40.54308 | -73.24942 | 8752 ft | 272 kts | 207° |
| 2026-05-08 17:50 | 40.52533 | -73.25770 | 8184 ft | 270 kts | 207° |
| 2026-05-08 17:51 | 40.50765 | -73.26598 | 7619 ft | 268 kts | 207° |
| 2026-05-08 17:51 | 40.49016 | -73.27421 | 7148 ft | 264 kts | 207° |
| 2026-05-08 17:51 | 40.47311 | -73.28223 | 6987 ft | 256 kts | 207° |
| 2026-05-08 17:51 | 40.45819 | -73.29325 | 6600 ft | 241 kts | 232° |
| 2026-05-08 17:52 | 40.45008 | -73.31158 | 6231 ft | 231 kts | 260° |
| 2026-05-08 17:52 | 40.45060 | -73.33236 | 5839 ft | 230 kts | 284° |
| 2026-05-08 17:52 | 40.46491 | -73.37039 | 5531 ft | 243 kts | 298° |
| 2026-05-08 17:53 | 40.47429 | -73.39025 | 5553 ft | 260 kts | 299° |
| 2026-05-08 17:53 | 40.48365 | -73.40997 | 5528 ft | 249 kts | 299° |
| 2026-05-08 17:53 | 40.49260 | -73.42896 | 5293 ft | 244 kts | 298° |
| 2026-05-08 17:53 | 40.50149 | -73.44800 | 4956 ft | 244 kts | 298° |
| 2026-05-08 17:54 | 40.51034 | -73.46710 | 4617 ft | 244 kts | 298° |
| 2026-05-08 17:54 | 40.51916 | -73.48621 | 4263 ft | 245 kts | 298° |
| 2026-05-08 17:54 | 40.52796 | -73.50533 | 3928 ft | 245 kts | 298° |
| 2026-05-08 17:54 | 40.53674 | -73.52444 | 3646 ft | 242 kts | 298° |
| 2026-05-08 17:55 | 40.54526 | -73.54296 | 3561 ft | 233 kts | 298° |
| 2026-05-08 17:55 | 40.55347 | -73.56090 | 3453 ft | 224 kts | 298° |
| 2026-05-08 17:55 | 40.56153 | -73.57819 | 3210 ft | 220 kts | 298° |
| 2026-05-08 17:55 | 40.56922 | -73.59496 | 2945 ft | 216 kts | 298° |
| 2026-05-08 17:56 | 40.57686 | -73.61176 | 2684 ft | 210 kts | 298° |
| 2026-05-08 17:56 | 40.58422 | -73.62801 | 2380 ft | 204 kts | 298° |
| 2026-05-08 17:56 | 40.59128 | -73.64358 | 2108 ft | 192 kts | 298° |
| 2026-05-08 17:56 | 40.59793 | -73.65821 | 1833 ft | 180 kts | 297° |
| 2026-05-08 17:57 | 40.60406 | -73.67175 | 1626 ft | 167 kts | 297° |
| 2026-05-08 17:57 | 40.60973 | -73.68423 | 1391 ft | 148 kts | 296° |
| 2026-05-08 17:57 | 40.61469 | -73.69519 | 1197 ft | 131 kts | 296° |
| 2026-05-08 17:57 | 40.61915 | -73.70507 | 1043 ft | 127 kts | 296° |
| 2026-05-08 17:58 | 40.62375 | -73.71525 | 854 ft | 134 kts | 296° |
| 2026-05-08 17:58 | 40.62863 | -73.72598 | 678 ft | 138 kts | 297° |
| 2026-05-08 17:58 | 40.63353 | -73.73680 | 476 ft | 135 kts | 297° |
| 2026-05-08 17:58 | 40.63824 | -73.74722 | 298 ft | 128 kts | 298° |
| 2026-05-08 17:59 | 40.64270 | -73.75712 | 133 ft | 127 kts | 300° |
| 2026-05-08 17:59 | 40.64730 | -73.76722 | 31 ft | 125 kts | 301° |
| 2026-05-08 17:59 | 40.65116 | -73.77567 | 28 ft | 80 kts | 301° |
| 2026-05-08 17:59 | 40.65283 | -73.77938 | 28 ft | 20 kts | 296° |
| 2026-05-08 18:00 | 40.65308 | -73.78104 | 27 ft | 11 kts | 263° |
| 2026-05-08 18:00 | 40.65212 | -73.78126 | 28 ft | 8 kts | 194° |
| 2026-05-08 18:00 | 40.65160 | -73.78133 | 28 ft | 8 kts | 151° |
| 2026-05-08 18:01 | 40.65126 | -73.78072 | 28 ft | 8 kts | 121° |
| 2026-05-08 18:01 | 40.65097 | -73.78006 | 27 ft | 8 kts | 120° |
| 2026-05-08 18:01 | 40.65066 | -73.77937 | 26 ft | 10 kts | 121° |
| 2026-05-08 18:01 | 40.65028 | -73.77852 | 28 ft | 12 kts | 121° |
| 2026-05-08 18:02 | 40.64974 | -73.77734 | 29 ft | 18 kts | 121° |
| 2026-05-08 18:02 | 40.64925 | -73.77627 | 31 ft | 24 kts | 121° |
| 2026-05-08 18:02 | 40.64804 | -73.77360 | 28 ft | 26 kts | 121° |
| 2026-05-08 18:02 | 40.64713 | -73.77161 | 27 ft | 22 kts | 123° |
| 2026-05-08 18:03 | 40.64585 | -73.77089 | 27 ft | 21 kts | 180° |
| 2026-05-08 18:03 | 40.64439 | -73.77103 | 27 ft | 21 kts | 200° |
| 2026-05-08 18:03 | 40.64311 | -73.77199 | 27 ft | 21 kts | 210° |
| 2026-05-08 18:03 | 40.64185 | -73.77297 | 30 ft | 21 kts | 210° |
| 2026-05-08 18:04 | 40.64091 | -73.77370 | 27 ft | 10 kts | 211° |
| 2026-05-08 18:04 | 40.64082 | -73.77448 | 27 ft | 10 kts | 304° |
| 2026-05-08 18:04 | 40.64132 | -73.77513 | 27 ft | 10 kts | 323° |
| 2026-05-08 18:04 | 40.64192 | -73.77561 | 27 ft | 10 kts | 330° |
| 2026-05-08 18:05 | 40.64253 | -73.77607 | 27 ft | 10 kts | 330° |
| 2026-05-08 18:05 | 40.64315 | -73.77652 | 27 ft | 10 kts | 331° |
| 2026-05-08 18:05 | 40.64372 | -73.77704 | 27 ft | 10 kts | 301° |
| 2026-05-08 18:05 | 40.64367 | -73.77779 | 28 ft | 4 kts | 253° |
| 2026-05-08 18:06 | 40.64358 | -73.77816 | 28 ft | 4 kts | 252° |
| 2026-05-08 18:06 | 40.64355 | -73.77826 | 28 ft | 0 kts | 252° |